sensor_id;sensor_type;location;lat;lon;timestamp;P1;durP1;ratioP1;P2;durP2;ratioP2
4839;SDS011;2434;48.486;7.964;2022-09-29T00:01:08;3.53;;;1.93;;
4839;SDS011;2434;48.486;7.964;2022-09-29T00:03:38;2.17;;;1.80;;
4839;SDS011;2434;48.486;7.964;2022-09-29T00:06:10;4.40;;;1.97;;
4839;SDS011;2434;48.486;7.964;2022-09-29T00:08:39;2.00;;;1.83;;
4839;SDS011;2434;48.486;7.964;2022-09-29T00:11:09;2.07;;;1.80;;
4839;SDS011;2434;48.486;7.964;2022-09-29T00:13:38;3.90;;;1.87;;
4839;SDS011;2434;48.486;7.964;2022-09-29T00:16:07;2.60;;;2.17;;
4839;SDS011;2434;48.486;7.964;2022-09-29T00:18:35;2.37;;;2.17;;
4839;SDS011;2434;48.486;7.964;2022-09-29T00:21:04;5.50;;;2.10;;
4839;SDS011;2434;48.486;7.964;2022-09-29T00:23:35;3.87;;;2.33;;
4839;SDS011;2434;48.486;7.964;2022-09-29T00:26:05;3.27;;;2.20;;
4839;SDS011;2434;48.486;7.964;2022-09-29T00:28:37;4.70;;;2.20;;
4839;SDS011;2434;48.486;7.964;2022-09-29T00:31:07;4.33;;;2.40;;
4839;SDS011;2434;48.486;7.964;2022-09-29T00:33:37;1.67;;;1.53;;
4839;SDS011;2434;48.486;7.964;2022-09-29T00:36:07;7.10;;;2.40;;
4839;SDS011;2434;48.486;7.964;2022-09-29T00:38:38;7.87;;;2.17;;
4839;SDS011;2434;48.486;7.964;2022-09-29T00:41:07;2.10;;;1.93;;
4839;SDS011;2434;48.486;7.964;2022-09-29T00:43:48;3.03;;;2.30;;
4839;SDS011;2434;48.486;7.964;2022-09-29T00:46:20;2.90;;;1.70;;
4839;SDS011;2434;48.486;7.964;2022-09-29T00:48:53;3.40;;;1.70;;
4839;SDS011;2434;48.486;7.964;2022-09-29T00:51:24;3.47;;;1.40;;
4839;SDS011;2434;48.486;7.964;2022-09-29T00:53:55;2.20;;;1.90;;
4839;SDS011;2434;48.486;7.964;2022-09-29T00:56:25;2.57;;;2.27;;
4839;SDS011;2434;48.486;7.964;2022-09-29T00:58:56;2.80;;;1.50;;
4839;SDS011;2434;48.486;7.964;2022-09-29T01:01:28;2.20;;;1.23;;
4839;SDS011;2434;48.486;7.964;2022-09-29T01:03:58;2.27;;;1.60;;
4839;SDS011;2434;48.486;7.964;2022-09-29T01:06:30;2.23;;;1.77;;
4839;SDS011;2434;48.486;7.964;2022-09-29T01:09:03;4.47;;;2.07;;
4839;SDS011;2434;48.486;7.964;2022-09-29T01:11:33;2.40;;;1.87;;
4839;SDS011;2434;48.486;7.964;2022-09-29T01:14:03;1.90;;;1.57;;
4839;SDS011;2434;48.486;7.964;2022-09-29T01:16:34;2.10;;;1.90;;
4839;SDS011;2434;48.486;7.964;2022-09-29T01:19:05;4.57;;;2.30;;
4839;SDS011;2434;48.486;7.964;2022-09-29T01:21:40;2.07;;;1.80;;
4839;SDS011;2434;48.486;7.964;2022-09-29T01:27:15;3.07;;;1.90;;
4839;SDS011;2434;48.486;7.964;2022-09-29T01:29:58;3.03;;;2.33;;
4839;SDS011;2434;48.486;7.964;2022-09-29T01:32:36;1.63;;;1.53;;
4839;SDS011;2434;48.486;7.964;2022-09-29T01:35:13;2.10;;;1.77;;
4839;SDS011;2434;48.486;7.964;2022-09-29T01:37:53;3.90;;;2.10;;
4839;SDS011;2434;48.486;7.964;2022-09-29T01:40:32;3.43;;;2.27;;
4839;SDS011;2434;48.486;7.964;2022-09-29T01:43:06;3.63;;;2.03;;
4839;SDS011;2434;48.486;7.964;2022-09-29T01:45:38;3.50;;;2.10;;
4839;SDS011;2434;48.486;7.964;2022-09-29T01:48:12;2.77;;;2.10;;
4839;SDS011;2434;48.486;7.964;2022-09-29T01:50:45;3.20;;;2.10;;
4839;SDS011;2434;48.486;7.964;2022-09-29T01:53:17;2.93;;;2.17;;
4839;SDS011;2434;48.486;7.964;2022-09-29T01:55:49;3.43;;;2.07;;
4839;SDS011;2434;48.486;7.964;2022-09-29T01:58:21;2.37;;;2.07;;
4839;SDS011;2434;48.486;7.964;2022-09-29T02:00:54;2.20;;;2.00;;
4839;SDS011;2434;48.486;7.964;2022-09-29T02:03:27;2.50;;;1.60;;
4839;SDS011;2434;48.486;7.964;2022-09-29T02:05:57;2.07;;;1.80;;
4839;SDS011;2434;48.486;7.964;2022-09-29T02:08:29;2.67;;;2.03;;
4839;SDS011;2434;48.486;7.964;2022-09-29T02:11:03;3.67;;;1.90;;
4839;SDS011;2434;48.486;7.964;2022-09-29T02:13:34;3.10;;;1.97;;
4839;SDS011;2434;48.486;7.964;2022-09-29T02:16:07;2.20;;;1.87;;
4839;SDS011;2434;48.486;7.964;2022-09-29T02:18:43;4.37;;;1.70;;
4839;SDS011;2434;48.486;7.964;2022-09-29T02:21:15;3.23;;;2.17;;
4839;SDS011;2434;48.486;7.964;2022-09-29T02:23:43;5.50;;;2.63;;
4839;SDS011;2434;48.486;7.964;2022-09-29T02:26:12;4.63;;;1.87;;
4839;SDS011;2434;48.486;7.964;2022-09-29T02:28:41;1.67;;;1.57;;
4839;SDS011;2434;48.486;7.964;2022-09-29T02:31:10;1.77;;;1.60;;
4839;SDS011;2434;48.486;7.964;2022-09-29T02:33:39;4.50;;;1.80;;
4839;SDS011;2434;48.486;7.964;2022-09-29T02:36:12;4.27;;;1.53;;
4839;SDS011;2434;48.486;7.964;2022-09-29T02:38:52;4.67;;;1.73;;
4839;SDS011;2434;48.486;7.964;2022-09-29T02:41:27;6.90;;;2.40;;
4839;SDS011;2434;48.486;7.964;2022-09-29T02:47:11;2.97;;;2.10;;
4839;SDS011;2434;48.486;7.964;2022-09-29T02:49:51;4.07;;;1.60;;
4839;SDS011;2434;48.486;7.964;2022-09-29T02:52:32;1.80;;;1.70;;
4839;SDS011;2434;48.486;7.964;2022-09-29T02:55:11;2.70;;;1.70;;
4839;SDS011;2434;48.486;7.964;2022-09-29T02:57:46;2.27;;;2.07;;
4839;SDS011;2434;48.486;7.964;2022-09-29T03:00:19;1.67;;;1.57;;
4839;SDS011;2434;48.486;7.964;2022-09-29T03:02:48;1.50;;;1.33;;
4839;SDS011;2434;48.486;7.964;2022-09-29T03:05:17;2.30;;;1.40;;
4839;SDS011;2434;48.486;7.964;2022-09-29T03:07:48;2.50;;;1.50;;
4839;SDS011;2434;48.486;7.964;2022-09-29T03:10:16;3.00;;;1.40;;
4839;SDS011;2434;48.486;7.964;2022-09-29T03:12:45;3.40;;;1.70;;
4839;SDS011;2434;48.486;7.964;2022-09-29T03:15:13;4.70;;;1.80;;
4839;SDS011;2434;48.486;7.964;2022-09-29T03:17:43;2.20;;;1.40;;
4839;SDS011;2434;48.486;7.964;2022-09-29T03:20:11;4.10;;;1.83;;
4839;SDS011;2434;48.486;7.964;2022-09-29T03:22:39;2.60;;;1.40;;
4839;SDS011;2434;48.486;7.964;2022-09-29T03:25:10;1.53;;;1.40;;
4839;SDS011;2434;48.486;7.964;2022-09-29T03:27:40;1.60;;;1.50;;
4839;SDS011;2434;48.486;7.964;2022-09-29T03:30:10;7.63;;;1.73;;
4839;SDS011;2434;48.486;7.964;2022-09-29T03:32:40;4.53;;;1.83;;
4839;SDS011;2434;48.486;7.964;2022-09-29T03:35:09;1.53;;;1.27;;
4839;SDS011;2434;48.486;7.964;2022-09-29T03:37:37;4.03;;;2.27;;
4839;SDS011;2434;48.486;7.964;2022-09-29T03:40:06;2.00;;;1.50;;
4839;SDS011;2434;48.486;7.964;2022-09-29T03:42:36;3.10;;;1.60;;
4839;SDS011;2434;48.486;7.964;2022-09-29T03:45:05;3.20;;;1.50;;
4839;SDS011;2434;48.486;7.964;2022-09-29T03:47:33;6.13;;;1.60;;
4839;SDS011;2434;48.486;7.964;2022-09-29T03:50:02;2.20;;;1.37;;
4839;SDS011;2434;48.486;7.964;2022-09-29T03:52:30;1.90;;;1.80;;
4839;SDS011;2434;48.486;7.964;2022-09-29T03:54:58;6.80;;;2.97;;
4839;SDS011;2434;48.486;7.964;2022-09-29T03:57:26;3.67;;;2.97;;
4839;SDS011;2434;48.486;7.964;2022-09-29T03:59:56;3.63;;;2.73;;
4839;SDS011;2434;48.486;7.964;2022-09-29T04:02:24;1.70;;;1.60;;
4839;SDS011;2434;48.486;7.964;2022-09-29T04:04:52;4.60;;;2.30;;
4839;SDS011;2434;48.486;7.964;2022-09-29T04:07:20;5.70;;;2.50;;
4839;SDS011;2434;48.486;7.964;2022-09-29T04:09:48;6.33;;;2.57;;
4839;SDS011;2434;48.486;7.964;2022-09-29T04:12:16;6.20;;;2.57;;
4839;SDS011;2434;48.486;7.964;2022-09-29T04:14:45;3.43;;;1.77;;
4839;SDS011;2434;48.486;7.964;2022-09-29T04:17:14;3.43;;;1.70;;
4839;SDS011;2434;48.486;7.964;2022-09-29T04:19:43;3.03;;;1.50;;
4839;SDS011;2434;48.486;7.964;2022-09-29T04:22:11;2.87;;;1.30;;
4839;SDS011;2434;48.486;7.964;2022-09-29T04:24:42;1.93;;;1.40;;
4839;SDS011;2434;48.486;7.964;2022-09-29T04:27:10;1.60;;;1.50;;
4839;SDS011;2434;48.486;7.964;2022-09-29T04:29:38;6.43;;;1.80;;
4839;SDS011;2434;48.486;7.964;2022-09-29T04:32:06;2.60;;;2.30;;
4839;SDS011;2434;48.486;7.964;2022-09-29T04:34:36;1.90;;;1.80;;
4839;SDS011;2434;48.486;7.964;2022-09-29T04:37:06;5.70;;;1.87;;
4839;SDS011;2434;48.486;7.964;2022-09-29T04:39:36;3.83;;;2.77;;
4839;SDS011;2434;48.486;7.964;2022-09-29T04:42:04;5.23;;;2.20;;
4839;SDS011;2434;48.486;7.964;2022-09-29T04:44:33;2.83;;;1.70;;
4839;SDS011;2434;48.486;7.964;2022-09-29T04:47:01;3.83;;;2.30;;
4839;SDS011;2434;48.486;7.964;2022-09-29T04:49:29;2.03;;;1.57;;
4839;SDS011;2434;48.486;7.964;2022-09-29T04:51:59;3.00;;;2.50;;
4839;SDS011;2434;48.486;7.964;2022-09-29T04:54:29;3.50;;;2.30;;
4839;SDS011;2434;48.486;7.964;2022-09-29T04:57:03;2.60;;;2.40;;
4839;SDS011;2434;48.486;7.964;2022-09-29T04:59:31;4.23;;;2.30;;
4839;SDS011;2434;48.486;7.964;2022-09-29T05:01:59;2.77;;;1.97;;
4839;SDS011;2434;48.486;7.964;2022-09-29T05:04:27;3.93;;;2.87;;
4839;SDS011;2434;48.486;7.964;2022-09-29T05:06:56;5.63;;;3.37;;
4839;SDS011;2434;48.486;7.964;2022-09-29T05:09:25;7.03;;;3.33;;
4839;SDS011;2434;48.486;7.964;2022-09-29T05:11:59;8.17;;;5.37;;
4839;SDS011;2434;48.486;7.964;2022-09-29T05:14:27;20.70;;;12.27;;
4839;SDS011;2434;48.486;7.964;2022-09-29T05:16:55;29.67;;;16.33;;
4839;SDS011;2434;48.486;7.964;2022-09-29T05:19:24;29.80;;;16.50;;
4839;SDS011;2434;48.486;7.964;2022-09-29T05:21:52;21.67;;;12.67;;
4839;SDS011;2434;48.486;7.964;2022-09-29T05:24:20;11.40;;;7.63;;
4839;SDS011;2434;48.486;7.964;2022-09-29T05:26:50;8.60;;;6.07;;
4839;SDS011;2434;48.486;7.964;2022-09-29T05:29:24;8.30;;;5.37;;
4839;SDS011;2434;48.486;7.964;2022-09-29T05:31:52;11.03;;;5.60;;
4839;SDS011;2434;48.486;7.964;2022-09-29T05:34:20;7.80;;;4.87;;
4839;SDS011;2434;48.486;7.964;2022-09-29T05:36:48;5.30;;;3.03;;
4839;SDS011;2434;48.486;7.964;2022-09-29T05:39:17;3.00;;;2.47;;
4839;SDS011;2434;48.486;7.964;2022-09-29T05:41:46;2.80;;;1.67;;
4839;SDS011;2434;48.486;7.964;2022-09-29T05:44:17;6.90;;;1.57;;
4839;SDS011;2434;48.486;7.964;2022-09-29T05:46:45;1.90;;;1.73;;
4839;SDS011;2434;48.486;7.964;2022-09-29T05:49:13;2.00;;;1.70;;
4839;SDS011;2434;48.486;7.964;2022-09-29T05:51:43;3.70;;;2.07;;
4839;SDS011;2434;48.486;7.964;2022-09-29T05:54:11;1.93;;;1.77;;
4839;SDS011;2434;48.486;7.964;2022-09-29T05:56:39;3.37;;;2.43;;
4839;SDS011;2434;48.486;7.964;2022-09-29T05:59:11;6.43;;;3.20;;
4839;SDS011;2434;48.486;7.964;2022-09-29T06:01:40;6.90;;;4.90;;
4839;SDS011;2434;48.486;7.964;2022-09-29T06:04:08;5.53;;;4.33;;
4839;SDS011;2434;48.486;7.964;2022-09-29T06:06:36;10.30;;;4.50;;
4839;SDS011;2434;48.486;7.964;2022-09-29T06:09:06;8.23;;;4.03;;
4839;SDS011;2434;48.486;7.964;2022-09-29T06:11:34;5.80;;;4.73;;
4839;SDS011;2434;48.486;7.964;2022-09-29T06:14:02;10.17;;;5.63;;
4839;SDS011;2434;48.486;7.964;2022-09-29T06:16:31;8.83;;;5.03;;
4839;SDS011;2434;48.486;7.964;2022-09-29T06:19:02;14.87;;;6.70;;
4839;SDS011;2434;48.486;7.964;2022-09-29T06:21:31;7.53;;;4.97;;
4839;SDS011;2434;48.486;7.964;2022-09-29T06:24:00;4.70;;;3.27;;
4839;SDS011;2434;48.486;7.964;2022-09-29T06:26:29;8.70;;;4.00;;
4839;SDS011;2434;48.486;7.964;2022-09-29T06:28:57;4.33;;;3.90;;
4839;SDS011;2434;48.486;7.964;2022-09-29T06:31:25;8.53;;;3.63;;
4839;SDS011;2434;48.486;7.964;2022-09-29T06:33:55;9.60;;;3.40;;
4839;SDS011;2434;48.486;7.964;2022-09-29T06:36:27;10.50;;;4.23;;
4839;SDS011;2434;48.486;7.964;2022-09-29T06:39:15;7.20;;;5.33;;
4839;SDS011;2434;48.486;7.964;2022-09-29T06:41:43;6.70;;;5.27;;
4839;SDS011;2434;48.486;7.964;2022-09-29T06:44:17;8.27;;;5.90;;
4839;SDS011;2434;48.486;7.964;2022-09-29T06:46:45;7.73;;;3.87;;
4839;SDS011;2434;48.486;7.964;2022-09-29T06:49:14;3.30;;;3.10;;
4839;SDS011;2434;48.486;7.964;2022-09-29T06:51:44;3.10;;;2.77;;
4839;SDS011;2434;48.486;7.964;2022-09-29T06:54:13;6.80;;;3.47;;
4839;SDS011;2434;48.486;7.964;2022-09-29T06:56:45;3.20;;;2.90;;
4839;SDS011;2434;48.486;7.964;2022-09-29T06:59:14;6.30;;;3.87;;
4839;SDS011;2434;48.486;7.964;2022-09-29T07:01:42;12.73;;;4.23;;
4839;SDS011;2434;48.486;7.964;2022-09-29T07:04:17;4.97;;;4.10;;
4839;SDS011;2434;48.486;7.964;2022-09-29T07:06:48;13.03;;;4.37;;
4839;SDS011;2434;48.486;7.964;2022-09-29T07:09:17;8.50;;;4.40;;
4839;SDS011;2434;48.486;7.964;2022-09-29T07:11:47;7.00;;;4.30;;
4839;SDS011;2434;48.486;7.964;2022-09-29T07:14:17;6.30;;;4.40;;
4839;SDS011;2434;48.486;7.964;2022-09-29T07:16:48;7.70;;;5.47;;
4839;SDS011;2434;48.486;7.964;2022-09-29T07:19:17;6.47;;;4.70;;
4839;SDS011;2434;48.486;7.964;2022-09-29T07:21:46;10.13;;;5.97;;
4839;SDS011;2434;48.486;7.964;2022-09-29T07:24:17;11.10;;;6.30;;
4839;SDS011;2434;48.486;7.964;2022-09-29T07:26:45;10.27;;;5.97;;
4839;SDS011;2434;48.486;7.964;2022-09-29T07:29:13;5.57;;;4.87;;
4839;SDS011;2434;48.486;7.964;2022-09-29T07:31:41;13.70;;;4.73;;
4839;SDS011;2434;48.486;7.964;2022-09-29T07:34:17;7.10;;;4.03;;
4839;SDS011;2434;48.486;7.964;2022-09-29T07:36:45;4.93;;;3.83;;
4839;SDS011;2434;48.486;7.964;2022-09-29T07:39:15;6.77;;;4.50;;
4839;SDS011;2434;48.486;7.964;2022-09-29T07:41:43;6.87;;;3.50;;
4839;SDS011;2434;48.486;7.964;2022-09-29T07:44:12;6.83;;;2.80;;
4839;SDS011;2434;48.486;7.964;2022-09-29T07:46:41;6.50;;;3.70;;
4839;SDS011;2434;48.486;7.964;2022-09-29T07:49:09;6.90;;;3.80;;
4839;SDS011;2434;48.486;7.964;2022-09-29T07:51:37;4.63;;;3.60;;
4839;SDS011;2434;48.486;7.964;2022-09-29T07:54:07;4.60;;;3.77;;
4839;SDS011;2434;48.486;7.964;2022-09-29T07:56:35;5.10;;;4.23;;
4839;SDS011;2434;48.486;7.964;2022-09-29T07:59:04;6.33;;;3.70;;
4839;SDS011;2434;48.486;7.964;2022-09-29T08:01:32;5.07;;;3.57;;
4839;SDS011;2434;48.486;7.964;2022-09-29T08:04:01;3.97;;;3.57;;
4839;SDS011;2434;48.486;7.964;2022-09-29T08:06:29;4.37;;;3.40;;
4839;SDS011;2434;48.486;7.964;2022-09-29T08:08:58;5.13;;;3.80;;
4839;SDS011;2434;48.486;7.964;2022-09-29T08:11:32;2.60;;;2.40;;
4839;SDS011;2434;48.486;7.964;2022-09-29T08:14:04;4.43;;;2.43;;
4839;SDS011;2434;48.486;7.964;2022-09-29T08:16:32;3.67;;;2.33;;
4839;SDS011;2434;48.486;7.964;2022-09-29T08:19:01;4.50;;;2.93;;
4839;SDS011;2434;48.486;7.964;2022-09-29T08:21:31;3.90;;;2.63;;
4839;SDS011;2434;48.486;7.964;2022-09-29T08:24:02;4.00;;;1.97;;
4839;SDS011;2434;48.486;7.964;2022-09-29T08:26:34;3.43;;;1.90;;
4839;SDS011;2434;48.486;7.964;2022-09-29T08:29:09;2.90;;;1.60;;
4839;SDS011;2434;48.486;7.964;2022-09-29T08:31:42;2.23;;;1.63;;
4839;SDS011;2434;48.486;7.964;2022-09-29T08:34:11;2.20;;;1.50;;
4839;SDS011;2434;48.486;7.964;2022-09-29T08:36:41;1.73;;;1.63;;
4839;SDS011;2434;48.486;7.964;2022-09-29T08:39:09;1.93;;;1.40;;
4839;SDS011;2434;48.486;7.964;2022-09-29T08:44:27;6.60;;;1.93;;
4839;SDS011;2434;48.486;7.964;2022-09-29T08:47:07;4.53;;;2.30;;
4839;SDS011;2434;48.486;7.964;2022-09-29T08:49:45;2.50;;;1.63;;
4839;SDS011;2434;48.486;7.964;2022-09-29T08:52:18;3.13;;;1.73;;
4839;SDS011;2434;48.486;7.964;2022-09-29T08:54:49;3.43;;;1.77;;
4839;SDS011;2434;48.486;7.964;2022-09-29T08:57:24;3.20;;;1.93;;
4839;SDS011;2434;48.486;7.964;2022-09-29T08:59:53;2.00;;;1.40;;
4839;SDS011;2434;48.486;7.964;2022-09-29T09:02:37;3.67;;;1.53;;
4839;SDS011;2434;48.486;7.964;2022-09-29T09:05:38;1.63;;;1.30;;
4839;SDS011;2434;48.486;7.964;2022-09-29T09:08:19;2.00;;;1.40;;
4839;SDS011;2434;48.486;7.964;2022-09-29T09:11:05;2.93;;;1.90;;
4839;SDS011;2434;48.486;7.964;2022-09-29T09:13:53;2.50;;;1.73;;
4839;SDS011;2434;48.486;7.964;2022-09-29T09:16:33;4.57;;;1.63;;
4839;SDS011;2434;48.486;7.964;2022-09-29T09:19:20;2.47;;;1.90;;
4839;SDS011;2434;48.486;7.964;2022-09-29T09:22:05;6.23;;;1.70;;
4839;SDS011;2434;48.486;7.964;2022-09-29T09:24:45;2.57;;;1.97;;
4839;SDS011;2434;48.486;7.964;2022-09-29T09:27:19;7.90;;;2.33;;
4839;SDS011;2434;48.486;7.964;2022-09-29T09:29:59;2.80;;;1.57;;
4839;SDS011;2434;48.486;7.964;2022-09-29T09:32:31;6.17;;;2.07;;
4839;SDS011;2434;48.486;7.964;2022-09-29T09:35:07;2.80;;;1.70;;
4839;SDS011;2434;48.486;7.964;2022-09-29T09:37:49;2.80;;;1.80;;
4839;SDS011;2434;48.486;7.964;2022-09-29T09:40:20;2.60;;;1.70;;
4839;SDS011;2434;48.486;7.964;2022-09-29T09:42:53;4.37;;;1.90;;
4839;SDS011;2434;48.486;7.964;2022-09-29T09:45:30;1.30;;;1.20;;
4839;SDS011;2434;48.486;7.964;2022-09-29T09:48:03;3.30;;;1.70;;
4839;SDS011;2434;48.486;7.964;2022-09-29T09:50:38;7.20;;;1.93;;
4839;SDS011;2434;48.486;7.964;2022-09-29T09:53:09;2.13;;;1.77;;
4839;SDS011;2434;48.486;7.964;2022-09-29T09:55:41;2.30;;;1.60;;
4839;SDS011;2434;48.486;7.964;2022-09-29T09:58:17;3.23;;;1.40;;
4839;SDS011;2434;48.486;7.964;2022-09-29T10:01:02;7.40;;;1.83;;
4839;SDS011;2434;48.486;7.964;2022-09-29T10:03:32;2.70;;;1.40;;
4839;SDS011;2434;48.486;7.964;2022-09-29T10:06:02;1.57;;;1.47;;
4839;SDS011;2434;48.486;7.964;2022-09-29T10:08:34;1.40;;;1.30;;
4839;SDS011;2434;48.486;7.964;2022-09-29T10:11:11;1.90;;;1.53;;
4839;SDS011;2434;48.486;7.964;2022-09-29T10:13:49;4.70;;;1.70;;
4839;SDS011;2434;48.486;7.964;2022-09-29T10:16:26;2.70;;;1.30;;
4839;SDS011;2434;48.486;7.964;2022-09-29T10:18:58;1.93;;;1.30;;
4839;SDS011;2434;48.486;7.964;2022-09-29T10:24:20;2.67;;;1.40;;
4839;SDS011;2434;48.486;7.964;2022-09-29T10:26:50;3.47;;;1.50;;
4839;SDS011;2434;48.486;7.964;2022-09-29T10:29:22;2.40;;;1.50;;
4839;SDS011;2434;48.486;7.964;2022-09-29T10:32:00;2.83;;;1.10;;
4839;SDS011;2434;48.486;7.964;2022-09-29T10:34:31;3.23;;;0.90;;
4839;SDS011;2434;48.486;7.964;2022-09-29T10:37:02;2.40;;;1.30;;
4839;SDS011;2434;48.486;7.964;2022-09-29T10:39:33;2.60;;;1.90;;
4839;SDS011;2434;48.486;7.964;2022-09-29T10:42:17;2.13;;;1.60;;
4839;SDS011;2434;48.486;7.964;2022-09-29T10:44:49;3.53;;;1.57;;
4839;SDS011;2434;48.486;7.964;2022-09-29T10:47:21;4.00;;;2.93;;
4839;SDS011;2434;48.486;7.964;2022-09-29T10:50:06;2.37;;;2.10;;
4839;SDS011;2434;48.486;7.964;2022-09-29T10:52:40;3.40;;;1.67;;
4839;SDS011;2434;48.486;7.964;2022-09-29T10:55:14;3.60;;;0.90;;
4839;SDS011;2434;48.486;7.964;2022-09-29T10:57:44;1.33;;;1.20;;
4839;SDS011;2434;48.486;7.964;2022-09-29T11:00:26;3.07;;;0.97;;
4839;SDS011;2434;48.486;7.964;2022-09-29T11:03:01;1.13;;;0.73;;
4839;SDS011;2434;48.486;7.964;2022-09-29T11:05:34;3.17;;;1.20;;
4839;SDS011;2434;48.486;7.964;2022-09-29T11:08:03;1.03;;;0.93;;
4839;SDS011;2434;48.486;7.964;2022-09-29T11:10:38;3.33;;;1.63;;
4839;SDS011;2434;48.486;7.964;2022-09-29T11:13:33;3.63;;;1.53;;
4839;SDS011;2434;48.486;7.964;2022-09-29T11:16:03;3.23;;;1.83;;
4839;SDS011;2434;48.486;7.964;2022-09-29T11:18:40;6.30;;;1.70;;
4839;SDS011;2434;48.486;7.964;2022-09-29T11:21:32;3.00;;;1.60;;
4839;SDS011;2434;48.486;7.964;2022-09-29T11:24:22;3.53;;;1.73;;
4839;SDS011;2434;48.486;7.964;2022-09-29T11:27:09;2.57;;;1.50;;
4839;SDS011;2434;48.486;7.964;2022-09-29T11:29:49;3.13;;;1.67;;
4839;SDS011;2434;48.486;7.964;2022-09-29T11:32:33;2.33;;;2.13;;
4839;SDS011;2434;48.486;7.964;2022-09-29T11:35:17;3.70;;;2.03;;
4839;SDS011;2434;48.486;7.964;2022-09-29T11:37:56;5.47;;;2.10;;
4839;SDS011;2434;48.486;7.964;2022-09-29T11:40:37;2.63;;;1.57;;
4839;SDS011;2434;48.486;7.964;2022-09-29T11:43:20;4.27;;;2.20;;
4839;SDS011;2434;48.486;7.964;2022-09-29T11:45:59;2.13;;;1.50;;
4839;SDS011;2434;48.486;7.964;2022-09-29T11:48:40;3.43;;;1.77;;
4839;SDS011;2434;48.486;7.964;2022-09-29T11:51:29;6.10;;;1.87;;
4839;SDS011;2434;48.486;7.964;2022-09-29T11:54:05;2.40;;;1.70;;
4839;SDS011;2434;48.486;7.964;2022-09-29T11:56:50;3.70;;;1.90;;
4839;SDS011;2434;48.486;7.964;2022-09-29T11:59:28;2.47;;;1.60;;
4839;SDS011;2434;48.486;7.964;2022-09-29T12:02:14;2.67;;;1.40;;
4839;SDS011;2434;48.486;7.964;2022-09-29T12:05:02;2.87;;;1.87;;
4839;SDS011;2434;48.486;7.964;2022-09-29T12:07:41;2.40;;;1.70;;
4839;SDS011;2434;48.486;7.964;2022-09-29T12:10:24;1.33;;;1.23;;
4839;SDS011;2434;48.486;7.964;2022-09-29T12:13:04;3.50;;;1.47;;
4839;SDS011;2434;48.486;7.964;2022-09-29T12:15:43;2.30;;;1.20;;
4839;SDS011;2434;48.486;7.964;2022-09-29T12:18:19;3.43;;;1.37;;
4839;SDS011;2434;48.486;7.964;2022-09-29T12:20:51;1.03;;;0.93;;
4839;SDS011;2434;48.486;7.964;2022-09-29T12:23:23;3.83;;;2.50;;
4839;SDS011;2434;48.486;7.964;2022-09-29T12:25:55;2.83;;;1.30;;
4839;SDS011;2434;48.486;7.964;2022-09-29T12:28:31;1.37;;;1.13;;
4839;SDS011;2434;48.486;7.964;2022-09-29T12:31:08;5.40;;;1.60;;
4839;SDS011;2434;48.486;7.964;2022-09-29T12:33:42;4.03;;;1.70;;
4839;SDS011;2434;48.486;7.964;2022-09-29T12:36:15;3.00;;;1.67;;
4839;SDS011;2434;48.486;7.964;2022-09-29T12:39:23;3.37;;;1.73;;
4839;SDS011;2434;48.486;7.964;2022-09-29T12:42:02;4.90;;;1.37;;
4839;SDS011;2434;48.486;7.964;2022-09-29T12:44:46;3.20;;;1.90;;
4839;SDS011;2434;48.486;7.964;2022-09-29T12:47:22;2.27;;;1.67;;
4839;SDS011;2434;48.486;7.964;2022-09-29T12:49:57;5.37;;;2.07;;
4839;SDS011;2434;48.486;7.964;2022-09-29T12:52:30;3.13;;;1.50;;
4839;SDS011;2434;48.486;7.964;2022-09-29T12:55:06;4.33;;;1.87;;
4839;SDS011;2434;48.486;7.964;2022-09-29T12:57:44;4.00;;;1.47;;
4839;SDS011;2434;48.486;7.964;2022-09-29T13:00:16;4.40;;;1.97;;
4839;SDS011;2434;48.486;7.964;2022-09-29T13:02:54;1.83;;;1.43;;
4839;SDS011;2434;48.486;7.964;2022-09-29T13:09:00;1.10;;;0.87;;
4839;SDS011;2434;48.486;7.964;2022-09-29T13:17:51;5.90;;;1.97;;
4839;SDS011;2434;48.486;7.964;2022-09-29T13:20:42;3.20;;;1.30;;
4839;SDS011;2434;48.486;7.964;2022-09-29T13:23:38;2.20;;;1.13;;
4839;SDS011;2434;48.486;7.964;2022-09-29T13:26:27;2.33;;;1.17;;
4839;SDS011;2434;48.486;7.964;2022-09-29T13:29:11;4.20;;;1.97;;
4839;SDS011;2434;48.486;7.964;2022-09-29T13:31:43;6.07;;;1.50;;
4839;SDS011;2434;48.486;7.964;2022-09-29T13:34:17;2.80;;;1.50;;
4839;SDS011;2434;48.486;7.964;2022-09-29T13:36:53;6.53;;;1.00;;
4839;SDS011;2434;48.486;7.964;2022-09-29T13:39:30;4.10;;;1.40;;
4839;SDS011;2434;48.486;7.964;2022-09-29T13:42:24;5.90;;;1.10;;
4839;SDS011;2434;48.486;7.964;2022-09-29T13:45:15;3.23;;;1.40;;
4839;SDS011;2434;48.486;7.964;2022-09-29T14:00:01;11.30;;;1.60;;
4839;SDS011;2434;48.486;7.964;2022-09-29T14:03:00;1.97;;;1.57;;
4839;SDS011;2434;48.486;7.964;2022-09-29T14:09:03;2.03;;;1.43;;
4839;SDS011;2434;48.486;7.964;2022-09-29T14:11:34;2.37;;;1.30;;
4839;SDS011;2434;48.486;7.964;2022-09-29T14:14:06;2.50;;;1.20;;
4839;SDS011;2434;48.486;7.964;2022-09-29T14:16:44;1.73;;;1.20;;
4839;SDS011;2434;48.486;7.964;2022-09-29T14:30:58;3.40;;;1.50;;
4839;SDS011;2434;48.486;7.964;2022-09-29T14:33:32;2.50;;;1.30;;
4839;SDS011;2434;48.486;7.964;2022-09-29T14:36:05;1.53;;;1.43;;
4839;SDS011;2434;48.486;7.964;2022-09-29T14:38:39;1.07;;;0.87;;
4839;SDS011;2434;48.486;7.964;2022-09-29T14:41:31;1.30;;;1.20;;
4839;SDS011;2434;48.486;7.964;2022-09-29T14:44:07;1.40;;;1.30;;
4839;SDS011;2434;48.486;7.964;2022-09-29T14:46:42;2.17;;;1.33;;
4839;SDS011;2434;48.486;7.964;2022-09-29T14:53:03;2.03;;;1.30;;
4839;SDS011;2434;48.486;7.964;2022-09-29T14:55:45;1.23;;;1.13;;
4839;SDS011;2434;48.486;7.964;2022-09-29T14:58:24;2.50;;;1.13;;
4839;SDS011;2434;48.486;7.964;2022-09-29T15:01:03;6.00;;;1.30;;
4839;SDS011;2434;48.486;7.964;2022-09-29T15:03:38;1.33;;;1.00;;
4839;SDS011;2434;48.486;7.964;2022-09-29T15:06:13;1.67;;;1.10;;
4839;SDS011;2434;48.486;7.964;2022-09-29T15:08:51;1.87;;;1.03;;
4839;SDS011;2434;48.486;7.964;2022-09-29T15:11:23;2.03;;;1.27;;
4839;SDS011;2434;48.486;7.964;2022-09-29T15:14:00;1.67;;;1.10;;
4839;SDS011;2434;48.486;7.964;2022-09-29T15:16:30;1.63;;;1.53;;
4839;SDS011;2434;48.486;7.964;2022-09-29T15:19:15;4.10;;;1.37;;
4839;SDS011;2434;48.486;7.964;2022-09-29T15:22:07;1.37;;;1.30;;
4839;SDS011;2434;48.486;7.964;2022-09-29T15:24:52;3.63;;;1.00;;
4839;SDS011;2434;48.486;7.964;2022-09-29T15:27:36;1.23;;;1.13;;
4839;SDS011;2434;48.486;7.964;2022-09-29T15:30:11;1.60;;;1.20;;
4839;SDS011;2434;48.486;7.964;2022-09-29T15:32:43;1.03;;;0.93;;
4839;SDS011;2434;48.486;7.964;2022-09-29T15:35:14;3.67;;;1.73;;
4839;SDS011;2434;48.486;7.964;2022-09-29T15:37:53;3.70;;;1.53;;
4839;SDS011;2434;48.486;7.964;2022-09-29T15:40:25;2.20;;;1.40;;
4839;SDS011;2434;48.486;7.964;2022-09-29T15:43:00;5.33;;;1.23;;
4839;SDS011;2434;48.486;7.964;2022-09-29T15:45:29;1.70;;;1.60;;
4839;SDS011;2434;48.486;7.964;2022-09-29T15:47:59;4.47;;;1.67;;
4839;SDS011;2434;48.486;7.964;2022-09-29T15:50:28;2.90;;;1.20;;
4839;SDS011;2434;48.486;7.964;2022-09-29T15:52:58;5.23;;;1.73;;
4839;SDS011;2434;48.486;7.964;2022-09-29T15:55:30;1.87;;;1.40;;
4839;SDS011;2434;48.486;7.964;2022-09-29T15:57:58;1.40;;;1.30;;
4839;SDS011;2434;48.486;7.964;2022-09-29T16:00:40;1.20;;;1.10;;
4839;SDS011;2434;48.486;7.964;2022-09-29T16:03:11;1.90;;;1.33;;
4839;SDS011;2434;48.486;7.964;2022-09-29T16:06:00;2.80;;;1.53;;
4839;SDS011;2434;48.486;7.964;2022-09-29T16:08:32;4.30;;;1.63;;
4839;SDS011;2434;48.486;7.964;2022-09-29T16:11:07;1.50;;;1.40;;
4839;SDS011;2434;48.486;7.964;2022-09-29T16:13:45;2.00;;;1.77;;
4839;SDS011;2434;48.486;7.964;2022-09-29T16:16:17;2.37;;;2.10;;
4839;SDS011;2434;48.486;7.964;2022-09-29T16:18:51;2.43;;;1.80;;
4839;SDS011;2434;48.486;7.964;2022-09-29T16:21:22;1.77;;;1.47;;
4839;SDS011;2434;48.486;7.964;2022-09-29T16:23:58;4.20;;;2.00;;
4839;SDS011;2434;48.486;7.964;2022-09-29T16:26:35;2.00;;;1.80;;
4839;SDS011;2434;48.486;7.964;2022-09-29T16:29:06;3.20;;;2.50;;
4839;SDS011;2434;48.486;7.964;2022-09-29T16:31:51;3.93;;;1.80;;
4839;SDS011;2434;48.486;7.964;2022-09-29T16:34:22;2.10;;;1.57;;
4839;SDS011;2434;48.486;7.964;2022-09-29T16:36:53;2.70;;;1.90;;
4839;SDS011;2434;48.486;7.964;2022-09-29T16:39:23;2.00;;;1.53;;
4839;SDS011;2434;48.486;7.964;2022-09-29T16:41:54;2.80;;;1.70;;
4839;SDS011;2434;48.486;7.964;2022-09-29T16:44:25;8.37;;;2.13;;
4839;SDS011;2434;48.486;7.964;2022-09-29T16:46:56;8.47;;;2.07;;